Time;durP1;ratioP1;P1;durP2;ratioP2;P2;SDS_P1;SDS_P2;PMS_P1;PMS_P2;Temp;Humidity;BMP_temperature;BMP_pressure;BME280_temperature;BME280_humidity;BME280_pressure;Samples;Min_cycle;Max_cycle;Signal;HPM_P1;HPM_P2
2022/03/20 05:03:41;;;;;;;37.55;27.80;;;1.40;99.90;;;;;;6070321;23;20387;31
2022/03/20 05:06:11;;;;;;;35.70;27.83;;;1.30;99.90;;;;;;4913607;29;20536;-73
2022/03/20 05:08:40;;;;;;;36.23;28.60;;;1.30;99.90;;;;;;4918953;29;20480;-76
2022/03/20 05:13:53;;;;;;;42.37;32.70;;;1.20;99.90;;;;;;4919772;29;20437;-79
2022/03/20 05:16:24;;;;;;;47.00;39.57;;;1.20;99.90;;;;;;4919007;29;20445;-74
2022/03/20 05:18:53;;;;;;;42.93;35.63;;;1.20;99.90;;;;;;4908008;29;20472;-74
2022/03/20 05:21:23;;;;;;;37.63;28.37;;;1.30;99.90;;;;;;4898121;29;20957;-72
2022/03/20 05:23:57;;;;;;;35.97;26.40;;;1.20;99.90;;;;;;4899178;29;20460;-78
2022/03/20 05:26:29;;;;;;;36.30;27.17;;;1.20;99.90;;;;;;4897975;29;20477;-77
2022/03/20 05:28:57;;;;;;;34.53;26.60;;;1.20;99.90;;;;;;4900565;29;20537;-73
2022/03/20 05:31:26;;;;;;;37.53;30.07;;;1.20;99.90;;;;;;4898370;29;20482;-74
2022/03/20 05:33:55;;;;;;;38.43;29.37;;;1.20;99.90;;;;;;4901487;29;20438;-73
2022/03/20 05:36:28;;;;;;;35.43;27.73;;;1.20;99.90;;;;;;4901807;29;20518;-73
2022/03/20 05:38:57;;;;;;;38.70;27.57;;;1.20;99.90;;;;;;4902702;29;20487;-72
2022/03/20 05:44:11;;;;;;;35.73;27.73;;;1.30;99.90;;;;;;4897470;29;20501;-78
2022/03/20 05:46:40;;;;;;;31.83;24.93;;;1.30;99.90;;;;;;4897135;29;20450;-75
2022/03/20 05:49:09;;;;;;;37.17;28.10;;;1.40;99.90;;;;;;4896742;29;20931;-77
2022/03/20 05:51:39;;;;;;;39.97;27.33;;;1.30;99.90;;;;;;4896861;29;20522;-76
2022/03/20 05:54:08;;;;;;;34.13;26.53;;;1.40;99.90;;;;;;4894769;29;20456;-78
2022/03/20 05:59:22;;;;;;;35.27;27.37;;;1.50;99.90;;;;;;4896478;29;20897;-78
2022/03/20 06:01:51;;;;;;;35.03;26.73;;;1.50;99.90;;;;;;4896899;29;20548;-78
2022/03/20 06:04:20;;;;;;;33.07;26.00;;;1.50;99.90;;;;;;4897042;29;20952;-77
2022/03/20 06:06:50;;;;;;;35.67;27.10;;;1.50;99.90;;;;;;4897304;29;20998;-77
2022/03/20 06:09:18;;;;;;;33.50;25.30;;;1.60;99.90;;;;;;4897379;29;20462;-78
2022/03/20 06:11:49;;;;;;;33.53;25.47;;;1.60;99.90;;;;;;4896677;29;20481;-80
2022/03/20 06:14:17;;;;;;;32.60;25.33;;;1.70;99.90;;;;;;4896644;29;20469;-77
2022/03/20 06:16:47;;;;;;;33.30;25.60;;;1.70;99.90;;;;;;4897007;29;20469;-78
2022/03/20 06:19:17;;;;;;;33.97;25.87;;;1.80;99.90;;;;;;4896273;29;20490;-79
2022/03/20 06:21:48;;;;;;;33.77;25.17;;;1.80;99.90;;;;;;4894638;29;20458;-78
2022/03/20 06:24:17;;;;;;;32.87;25.93;;;1.90;99.90;;;;;;4897181;29;20510;-76
2022/03/20 06:26:47;;;;;;;30.90;24.23;;;1.90;99.90;;;;;;4897070;29;20512;-79
2022/03/20 06:29:15;;;;;;;30.30;24.60;;;2.00;99.90;;;;;;4893737;29;20513;-76
2022/03/20 06:31:43;;;;;;;32.03;24.10;;;2.10;99.90;;;;;;4895182;29;20521;-80
2022/03/20 06:34:12;;;;;;;30.83;23.93;;;2.10;99.90;;;;;;4896399;29;20446;-75
2022/03/20 06:36:40;;;;;;;30.80;24.33;;;2.20;99.90;;;;;;4894653;29;20461;-76
2022/03/20 06:39:08;;;;;;;27.90;22.97;;;2.30;99.90;;;;;;4897922;29;20556;-72
2022/03/20 06:41:38;;;;;;;30.10;23.50;;;2.40;99.90;;;;;;4898548;29;20943;-74
2022/03/20 06:44:16;;;;;;;29.43;22.10;;;2.50;99.90;;;;;;4898729;29;20504;-78
2022/03/20 06:50:29;;;;;;;29.83;22.20;;;2.60;99.90;;;;;;4898268;29;20504;-78
2022/03/20 06:53:02;;;;;;;26.90;22.07;;;2.80;99.90;;;;;;4899984;29;20532;-78
2022/03/20 06:55:33;;;;;;;27.60;22.00;;;2.90;99.90;;;;;;4899094;29;20486;-77
2022/03/20 06:58:22;;;;;;;28.67;21.43;;;3.00;99.90;;;;;;4897107;29;20565;-76
2022/03/20 07:00:51;;;;;;;26.67;21.77;;;3.10;99.90;;;;;;4899558;29;20206;-79
2022/03/20 07:03:20;;;;;;;26.30;20.83;;;3.20;99.90;;;;;;4898676;29;20458;-79
2022/03/20 07:05:54;;;;;;;25.53;20.67;;;3.40;99.90;;;;;;4899449;29;20301;-75
2022/03/20 07:08:25;;;;;;;25.27;21.33;;;3.70;99.90;;;;;;4892557;29;20288;-74
2022/03/20 07:10:56;;;;;;;25.33;20.70;;;3.80;99.90;;;;;;4903135;29;20218;-77
2022/03/20 07:16:14;;;;;;;23.13;19.23;;;4.80;99.90;;;;;;4899536;29;20617;-75
2022/03/20 07:18:44;;;;;;;25.90;19.93;;;5.50;99.50;;;;;;4900825;29;20285;-73
2022/03/20 07:21:14;;;;;;;24.13;19.90;;;6.30;97.80;;;;;;4899736;29;20248;-74
2022/03/20 07:23:43;;;;;;;25.87;18.83;;;7.10;95.90;;;;;;4898897;29;20787;-75
2022/03/20 07:31:44;;;;;;;20.40;18.20;;;8.20;91.40;;;;;;4896431;29;20366;-75
2022/03/20 07:34:13;;;;;;;19.90;17.80;;;9.10;90.60;;;;;;4898782;29;20198;-74
2022/03/20 07:36:41;;;;;;;20.27;17.93;;;9.40;88.20;;;;;;4899346;29;20299;-77
2022/03/20 07:39:09;;;;;;;20.97;17.43;;;9.90;86.80;;;;;;4897898;29;20233;-73
2022/03/20 07:41:38;;;;;;;20.97;17.73;;;10.40;81.40;;;;;;4898353;29;20226;-73
2022/03/20 07:44:10;;;;;;;21.83;18.37;;;9.50;84.70;;;;;;4898073;29;20213;-74
2022/03/20 07:46:40;;;;;;;19.73;17.63;;;9.50;85.20;;;;;;4899602;29;20676;-73
2022/03/20 07:49:09;;;;;;;19.40;17.30;;;10.40;82.60;;;;;;4910613;29;20712;-74
2022/03/20 07:51:38;;;;;;;19.63;16.60;;;11.20;78.70;;;;;;4897826;29;20222;-74
2022/03/20 07:54:06;;;;;;;20.03;16.90;;;12.30;76.80;;;;;;4898899;29;20735;-74
2022/03/20 07:56:35;;;;;;;18.60;16.60;;;12.90;72.10;;;;;;4898797;29;20253;-74
2022/03/20 07:59:05;;;;;;;18.80;16.80;;;12.60;71.80;;;;;;4885759;29;20217;-75
2022/03/20 08:01:38;;;;;;;19.13;17.13;;;12.40;70.20;;;;;;4882307;29;20194;-74
2022/03/20 08:04:06;;;;;;;17.63;15.83;;;12.70;70.30;;;;;;4898140;29;20233;-73
2022/03/20 08:06:59;;;;;;;18.97;17.00;;;13.10;68.00;;;;;;4896754;29;20205;-76
2022/03/20 08:09:28;;;;;;;20.73;16.97;;;12.60;68.20;;;;;;4886596;29;20218;-74
2022/03/20 08:11:56;;;;;;;18.37;16.57;;;12.60;68.60;;;;;;4898446;29;20304;-74
2022/03/20 08:14:28;;;;;;;19.60;16.33;;;12.20;68.00;;;;;;4898887;29;20309;-74
2022/03/20 08:17:21;;;;;;;17.67;15.87;;;11.60;69.60;;;;;;4892616;29;20214;-78
2022/03/20 08:19:49;;;;;;;26.13;20.53;;;12.30;68.30;;;;;;4897931;29;20240;-77
2022/03/20 08:22:18;;;;;;;20.63;18.10;;;12.30;67.50;;;;;;4913216;29;20221;-73
2022/03/20 08:24:49;;;;;;;17.60;15.80;;;13.60;66.90;;;;;;4917574;29;20212;-74
2022/03/20 08:27:19;;;;;;;17.07;15.27;;;13.80;63.60;;;;;;4917765;29;20240;-76
2022/03/20 08:29:47;;;;;;;16.83;15.13;;;13.60;64.70;;;;;;4904602;29;20622;-76
2022/03/20 08:32:15;;;;;;;16.50;14.87;;;13.20;62.60;;;;;;4917588;29;20308;-74
2022/03/20 08:34:52;;;;;;;16.70;15.10;;;13.30;63.00;;;;;;4916927;29;20283;-75
2022/03/20 08:37:23;;;;;;;15.90;14.30;;;14.00;61.50;;;;;;4915055;29;20225;-75
2022/03/20 08:39:52;;;;;;;16.53;14.87;;;14.30;60.30;;;;;;4898951;29;20237;-75
2022/03/20 08:42:22;;;;;;;16.60;14.90;;;14.60;60.10;;;;;;4898537;29;20241;-76
2022/03/20 08:44:52;;;;;;;15.97;14.37;;;14.60;59.90;;;;;;4903479;29;20233;-75
2022/03/20 08:47:20;;;;;;;16.57;14.83;;;15.50;58.20;;;;;;4893722;29;20308;-75
2022/03/20 08:49:50;;;;;;;16.13;14.57;;;15.80;57.90;;;;;;4891130;29;20263;-76
2022/03/20 08:52:22;;;;;;;15.70;14.17;;;16.00;55.90;;;;;;4898258;29;20809;-74
2022/03/20 08:54:50;;;;;;;16.67;14.50;;;16.20;55.60;;;;;;4878933;29;20231;-77
2022/03/20 08:57:19;;;;;;;15.80;14.30;;;16.10;55.50;;;;;;4879743;29;20222;-74
2022/03/20 08:59:47;;;;;;;15.83;14.23;;;16.30;54.70;;;;;;4879672;29;20262;-73
2022/03/20 09:02:15;;;;;;;15.77;14.10;;;16.60;54.10;;;;;;4884903;29;20237;-73
2022/03/20 09:04:43;;;;;;;15.97;14.27;;;17.20;53.70;;;;;;4897745;29;20240;-75
2022/03/20 09:07:16;;;;;;;15.63;13.90;;;16.90;52.80;;;;;;4894730;29;20763;-74
2022/03/20 09:09:48;;;;;;;16.37;14.77;;;16.90;53.20;;;;;;4896243;29;20220;-75
2022/03/20 09:12:16;;;;;;;15.90;14.33;;;17.10;53.00;;;;;;4897440;29;20333;-75
2022/03/20 09:14:47;;;;;;;15.33;13.83;;;16.50;53.20;;;;;;4885455;29;20302;-75
2022/03/20 09:20:03;;;;;;;14.83;13.37;;;16.90;52.50;;;;;;4903127;29;20257;-75
2022/03/20 09:22:34;;;;;;;15.00;13.43;;;16.10;53.40;;;;;;4913922;29;20255;-74
2022/03/20 09:25:03;;;;;;;15.40;13.87;;;16.60;53.60;;;;;;4912281;29;20209;-74
2022/03/20 09:27:31;;;;;;;15.40;13.80;;;17.10;52.20;;;;;;4897316;29;20213;-75
2022/03/20 09:29:59;;;;;;;16.90;15.10;;;16.40;52.10;;;;;;4897466;29;20296;-78
2022/03/20 09:32:27;;;;;;;17.17;15.43;;;16.30;52.40;;;;;;4897340;29;20233;-77
2022/03/20 09:34:56;;;;;;;16.13;14.43;;;17.00;52.10;;;;;;4897465;29;20241;-76
2022/03/20 09:37:26;;;;;;;16.23;14.53;;;16.20;52.20;;;;;;4897036;29;20642;-75
2022/03/20 09:39:55;;;;;;;15.90;13.90;;;16.30;52.40;;;;;;4901347;29;20351;-73
2022/03/20 09:42:23;;;;;;;15.20;13.70;;;17.10;51.80;;;;;;4896873;29;20241;-74
2022/03/20 09:44:53;;;;;;;15.73;13.37;;;17.20;52.40;;;;;;4897032;29;20244;-75
2022/03/20 09:47:25;;;;;;;15.73;14.13;;;17.80;50.90;;;;;;4898041;29;20292;-75
2022/03/20 09:49:55;;;;;;;15.13;13.63;;;17.20;50.40;;;;;;4898865;29;20255;-77
2022/03/20 09:52:29;;;;;;;15.43;13.90;;;17.90;50.70;;;;;;4896279;29;20579;-74
2022/03/20 09:55:00;;;;;;;16.30;14.70;;;18.40;50.40;;;;;;4897039;29;20706;-74
2022/03/20 09:57:32;;;;;;;15.53;14.03;;;18.40;49.20;;;;;;4896698;29;20329;-75
2022/03/20 10:00:06;;;;;;;14.80;13.27;;;18.50;49.20;;;;;;4896960;29;20685;-75
2022/03/20 10:02:35;;;;;;;14.60;13.10;;;19.70;48.30;;;;;;4890831;29;20602;-75
2022/03/20 10:05:05;;;;;;;15.53;13.93;;;20.30;47.90;;;;;;4894343;29;20228;-76
2022/03/20 10:07:40;;;;;;;14.90;13.40;;;19.90;47.20;;;;;;4896682;29;20577;-75
2022/03/20 10:10:15;;;;;;;15.07;13.53;;;20.40;48.40;;;;;;4901146;29;20209;-75
2022/03/20 10:12:46;;;;;;;22.97;18.57;;;20.20;46.50;;;;;;4916715;29;20224;-76
2022/03/20 10:15:30;;;;;;;16.37;14.47;;;20.50;46.60;;;;;;4920151;29;20231;-76
2022/03/20 10:18:10;;;;;;;14.30;12.90;;;19.30;46.50;;;;;;4893660;29;20261;-75
2022/03/20 10:20:44;;;;;;;17.77;15.70;;;19.90;46.80;;;;;;4899628;29;20237;-75
2022/03/20 10:23:29;;;;;;;15.03;13.00;;;19.40;47.00;;;;;;4900495;29;20273;-76
2022/03/20 10:25:59;;;;;;;15.10;13.50;;;20.50;46.90;;;;;;4901396;29;20213;-75
2022/03/20 10:28:35;;;;;;;14.60;13.20;;;19.80;46.00;;;;;;4901099;29;20221;-75
2022/03/20 10:31:05;;;;;;;14.97;13.33;;;19.00;47.30;;;;;;4901185;29;20289;-75
2022/03/20 10:33:40;;;;;;;14.80;13.27;;;19.20;46.70;;;;;;4900982;29;20229;-75
2022/03/20 10:36:13;;;;;;;15.20;13.70;;;19.70;45.60;;;;;;4901158;29;20257;-75
2022/03/20 10:38:42;;;;;;;16.07;14.27;;;18.80;46.70;;;;;;4900294;29;20301;-75
2022/03/20 10:41:22;;;;;;;14.00;12.60;;;18.90;47.70;;;;;;4902190;29;20209;-76
2022/03/20 10:43:51;;;;;;;16.30;14.33;;;18.90;47.10;;;;;;4898713;29;20321;-74
2022/03/20 10:46:21;;;;;;;17.67;14.80;;;19.50;47.70;;;;;;4901037;29;20205;-74
2022/03/20 10:48:55;;;;;;;18.13;13.40;;;18.50;46.90;;;;;;4901262;29;20209;-76
2022/03/20 10:51:38;;;;;;;17.37;14.10;;;18.30;47.60;;;;;;4901446;29;20297;-77
2022/03/20 10:54:09;;;;;;;15.00;13.43;;;18.00;48.50;;;;;;4900857;29;20241;-76
2022/03/20 10:56:39;;;;;;;15.53;13.93;;;18.60;49.10;;;;;;4901283;29;20655;-78
2022/03/20 10:59:15;;;;;;;14.20;12.80;;;19.60;48.20;;;;;;4901069;29;20245;-77
2022/03/20 11:01:47;;;;;;;14.53;13.00;;;19.40;48.10;;;;;;4902693;29;20217;-77
2022/03/20 11:04:17;;;;;;;14.47;12.97;;;18.60;48.60;;;;;;4903113;29;20265;-77
2022/03/20 11:06:46;;;;;;;14.33;12.93;;;19.20;47.50;;;;;;4900725;29;20214;-78
2022/03/20 11:09:15;;;;;;;14.60;13.20;;;19.70;46.30;;;;;;4910442;29;20213;-77
2022/03/20 11:11:49;;;;;;;14.17;12.77;;;19.60;46.70;;;;;;4908368;29;20205;-78
2022/03/20 11:14:25;;;;;;;13.70;12.30;;;19.10;46.60;;;;;;4901827;29;20218;-75
2022/03/20 11:17:01;;;;;;;14.37;12.97;;;18.70;47.10;;;;;;4903158;29;20201;-76
2022/03/20 11:19:32;;;;;;;13.67;12.37;;;18.60;46.00;;;;;;4912133;29;20201;-76
2022/03/20 11:22:03;;;;;;;13.73;12.23;;;18.20;46.70;;;;;;4920464;29;20253;-76
2022/03/20 11:24:34;;;;;;;13.60;12.20;;;18.50;47.40;;;;;;4908904;29;20206;-76
2022/03/20 11:27:08;;;;;;;16.20;12.87;;;18.90;46.40;;;;;;4899109;29;20233;-77
2022/03/20 11:29:50;;;;;;;14.33;12.83;;;18.40;47.90;;;;;;4908529;29;20273;-77
2022/03/20 11:32:19;;;;;;;14.93;12.80;;;18.40;47.70;;;;;;4908046;29;20221;-75
2022/03/20 11:34:49;;;;;;;14.60;12.83;;;18.40;48.00;;;;;;4913366;29;20237;-75
2022/03/20 11:37:18;;;;;;;14.30;12.87;;;18.50;46.60;;;;;;4919529;29;20238;-74
2022/03/20 11:40:12;;;;;;;14.13;12.27;;;18.10;46.60;;;;;;4912971;29;20241;-79
2022/03/20 11:42:43;;;;;;;15.17;13.57;;;18.10;48.70;;;;;;4910382;29;20703;-76
2022/03/20 11:45:14;;;;;;;14.20;12.80;;;18.70;46.10;;;;;;4920156;29;20313;-74
2022/03/20 11:47:44;;;;;;;14.77;12.87;;;18.80;46.20;;;;;;4909465;29;20284;-76
2022/03/20 11:50:21;;;;;;;20.17;13.07;;;19.20;48.00;;;;;;4900446;29;20300;-78
2022/03/20 11:52:53;;;;;;;14.67;13.00;;;18.80;47.20;;;;;;4900380;29;20190;-77
2022/03/20 11:55:26;;;;;;;14.20;12.63;;;18.00;45.90;;;;;;4894068;29;20213;-77
2022/03/20 11:57:57;;;;;;;15.03;12.67;;;17.30;48.60;;;;;;4897279;29;20193;-77
2022/03/20 12:00:27;;;;;;;14.00;12.53;;;16.70;48.00;;;;;;4903039;29;20244;-76
2022/03/20 12:03:27;;;;;;;15.13;13.37;;;16.40;49.80;;;;;;4900135;29;20209;-76
2022/03/20 12:06:18;;;;;;;14.50;12.97;;;16.30;48.90;;;;;;4874800;29;20214;-78
2022/03/20 12:09:02;;;;;;;14.20;12.70;;;15.10;49.80;;;;;;4899635;29;20226;-74
2022/03/20 12:11:42;;;;;;;13.33;11.93;;;15.20;51.60;;;;;;4900581;29;20241;-75
2022/03/20 12:14:29;;;;;;;14.03;12.50;;;15.50;51.00;;;;;;4902597;29;20213;-75
2022/03/20 12:16:59;;;;;;;13.93;12.37;;;15.50;50.80;;;;;;4902163;29;20202;-76
2022/03/20 12:19:41;;;;;;;14.00;12.40;;;15.80;51.10;;;;;;4901639;29;20221;-77
2022/03/20 12:22:15;;;;;;;13.97;11.27;;;15.80;49.70;;;;;;4901597;29;20257;-77
2022/03/20 12:24:49;;;;;;;14.93;11.77;;;15.80;47.20;;;;;;4899734;29;20281;-75
2022/03/20 12:27:40;;;;;;;15.60;12.40;;;15.10;47.70;;;;;;4900191;29;20261;-75
2022/03/20 12:30:35;;;;;;;15.27;12.50;;;15.10;50.90;;;;;;4899687;29;20209;-75
2022/03/20 12:33:21;;;;;;;13.87;12.37;;;15.60;50.50;;;;;;4899831;29;20688;-75
2022/03/20 12:35:50;;;;;;;14.60;11.97;;;15.30;50.00;;;;;;4899160;29;20425;-73
2022/03/20 12:38:35;;;;;;;12.80;11.33;;;15.50;50.80;;;;;;4899408;29;20221;-76
2022/03/20 12:41:17;;;;;;;14.90;11.63;;;15.40;50.70;;;;;;4899109;29;20213;-74
2022/03/20 12:44:00;;;;;;;13.10;11.70;;;15.60;50.80;;;;;;4899629;29;20209;-74
2022/03/20 12:46:30;;;;;;;15.17;12.53;;;15.50;50.50;;;;;;4899738;29;20202;-76
2022/03/20 12:48:58;;;;;;;14.47;12.60;;;14.70;50.70;;;;;;4899587;29;20335;-74
2022/03/20 12:51:35;;;;;;;14.30;12.13;;;14.40;51.20;;;;;;4899562;29;20237;-75
2022/03/20 12:54:16;;;;;;;15.10;11.97;;;14.10;51.50;;;;;;4899433;29;20264;-78
2022/03/20 12:57:04;;;;;;;14.17;12.27;;;14.40;52.70;;;;;;4899701;29;20311;-80
2022/03/20 12:59:32;;;;;;;14.17;11.97;;;14.50;50.70;;;;;;4880818;29;20263;-79
2022/03/20 13:02:08;;;;;;;13.27;11.67;;;14.40;50.90;;;;;;4881050;29;20225;-75
2022/03/20 13:04:36;;;;;;;14.53;11.90;;;14.50;51.40;;;;;;4881015;29;20269;-78
2022/03/20 13:07:24;;;;;;;13.97;11.97;;;14.30;51.60;;;;;;4881753;29;20241;-78
2022/03/20 13:09:59;;;;;;;15.40;12.20;;;14.20;50.90;;;;;;4886359;29;20257;-75
2022/03/20 13:12:27;;;;;;;13.30;11.43;;;13.60;51.70;;;;;;4899940;29;20205;-77
2022/03/20 13:14:58;;;;;;;15.90;12.60;;;13.90;52.10;;;;;;4898803;29;20725;-75
2022/03/20 13:17:28;;;;;;;14.30;12.20;;;13.90;51.50;;;;;;4899359;29;20193;-74
2022/03/20 13:19:56;;;;;;;13.47;11.10;;;13.90;51.90;;;;;;4899072;29;20775;-80
2022/03/20 13:22:24;;;;;;;14.10;11.60;;;14.30;52.50;;;;;;4898872;29;20233;-75
2022/03/20 13:24:52;;;;;;;15.47;11.73;;;14.20;49.90;;;;;;4898790;29;20478;-78
2022/03/20 13:27:21;;;;;;;13.57;11.60;;;14.10;50.00;;;;;;4899250;29;20213;-74
2022/03/20 13:29:56;;;;;;;13.13;11.50;;;14.00;50.60;;;;;;4899365;29;20312;-76
2022/03/20 13:32:24;;;;;;;14.33;11.53;;;14.20;51.60;;;;;;4899080;29;20252;-73
2022/03/20 13:34:54;;;;;;;15.10;11.73;;;14.30;51.80;;;;;;4910159;29;20229;-76
2022/03/20 13:37:25;;;;;;;13.77;11.30;;;14.20;51.30;;;;;;4917037;29;20210;-75
2022/03/20 13:39:55;;;;;;;13.27;11.40;;;14.30;52.00;;;;;;4897513;29;20613;-77
2022/03/20 13:42:29;;;;;;;14.07;11.30;;;14.50;51.20;;;;;;4896894;29;20273;-75
2022/03/20 13:44:58;;;;;;;13.57;10.97;;;14.30;50.40;;;;;;4897849;29;20196;-76
2022/03/20 13:47:29;;;;;;;12.60;11.30;;;13.80;50.50;;;;;;4898364;29;20214;-75
2022/03/20 13:50:00;;;;;;;12.50;10.50;;;13.80;49.70;;;;;;4897955;29;20252;-78
2022/03/20 13:52:31;;;;;;;14.77;10.10;;;14.00;50.30;;;;;;4898765;29;20270;-73
2022/03/20 13:55:01;;;;;;;13.53;11.33;;;14.20;49.30;;;;;;4897805;29;20645;-77
2022/03/20 13:57:47;;;;;;;12.63;10.43;;;14.20;48.80;;;;;;4897261;29;20217;-76
2022/03/20 14:00:16;;;;;;;12.47;10.27;;;13.90;48.70;;;;;;4898987;29;20193;-79
2022/03/20 14:02:49;;;;;;;13.73;11.33;;;13.80;48.70;;;;;;4899296;29;20248;-75
2022/03/20 14:05:25;;;;;;;14.47;11.40;;;14.20;50.30;;;;;;4898654;29;20248;-76
2022/03/20 14:08:13;;;;;;;13.30;11.37;;;14.30;50.80;;;;;;4898170;29;20210;-77
2022/03/20 14:10:47;;;;;;;13.23;11.03;;;14.20;50.20;;;;;;4898429;29;20285;-75
2022/03/20 14:16:15;;;;;;;13.93;11.03;;;14.00;50.60;;;;;;4897414;29;20218;-75
2022/03/20 14:18:57;;;;;;;13.43;11.43;;;13.90;50.10;;;;;;4879548;29;20203;-77
2022/03/20 14:21:29;;;;;;;11.83;10.00;;;14.00;50.20;;;;;;4879542;29;20652;-78
2022/03/20 14:24:01;;;;;;;13.63;11.03;;;13.80;49.60;;;;;;4879206;29;20709;-74
2022/03/20 14:26:31;;;;;;;14.07;10.97;;;13.70;50.20;;;;;;4885095;29;20621;-79
2022/03/20 14:29:02;;;;;;;13.33;10.40;;;13.70;50.30;;;;;;4898167;29;20248;-79
2022/03/20 14:40:09;;;;;;;15.87;11.80;;;13.60;51.60;;;;;;4891858;29;20265;-74
2022/03/20 14:42:38;;;;;;;12.23;10.90;;;13.60;51.60;;;;;;4898227;29;20563;-77
2022/03/20 14:45:07;;;;;;;13.50;11.13;;;13.40;50.90;;;;;;4898522;29;20297;-74
2022/03/20 14:47:37;;;;;;;13.23;11.30;;;13.50;50.70;;;;;;4898099;29;20311;-77
2022/03/20 14:50:09;;;;;;;14.10;11.87;;;13.60;50.20;;;;;;4897540;29;20278;-79
2022/03/20 14:52:42;;;;;;;13.67;11.10;;;13.70;50.60;;;;;;4897898;29;20213;-79
2022/03/20 14:55:12;;;;;;;11.97;10.03;;;13.70;50.00;;;;;;4897862;29;20254;-80
2022/03/20 14:57:40;;;;;;;12.53;10.93;;;13.80;50.20;;;;;;4899058;29;20297;-76
2022/03/20 15:00:09;;;;;;;12.93;10.67;;;13.70;50.90;;;;;;4901006;29;20621;-77
2022/03/20 15:02:37;;;;;;;13.60;10.97;;;13.60;50.40;;;;;;4900984;29;20209;-77
2022/03/20 15:05:07;;;;;;;12.83;11.03;;;13.40;51.20;;;;;;4901123;29;20229;-80
2022/03/20 15:07:40;;;;;;;13.50;10.70;;;13.60;51.70;;;;;;4901185;29;20217;-75
2022/03/20 15:12:55;;;;;;;15.77;11.70;;;13.70;50.20;;;;;;4900981;29;20194;-77
2022/03/20 15:15:24;;;;;;;13.50;10.77;;;13.50;50.20;;;;;;4900485;29;20249;-76
2022/03/20 15:17:52;;;;;;;13.60;11.17;;;13.60;50.20;;;;;;4900662;29;20221;-79
2022/03/20 15:20:20;;;;;;;13.93;11.10;;;13.70;50.60;;;;;;4900960;29;20218;-77
2022/03/20 15:22:50;;;;;;;13.57;10.67;;;13.90;50.90;;;;;;4900779;29;20265;-79
2022/03/20 15:25:20;;;;;;;13.23;10.80;;;13.90;50.80;;;;;;4901376;29;20297;-81
2022/03/20 15:27:48;;;;;;;12.37;10.90;;;13.80;50.20;;;;;;4900454;29;20557;-75
2022/03/20 15:30:19;;;;;;;12.67;10.90;;;13.60;50.90;;;;;;4901378;29;20215;-79
2022/03/20 15:32:47;;;;;;;12.73;10.77;;;13.80;51.70;;;;;;4919231;29;20244;-79
2022/03/20 15:35:15;;;;;;;12.27;10.97;;;13.80;51.10;;;;;;4919966;29;20308;-77
2022/03/20 15:37:45;;;;;;;12.40;10.60;;;13.80;51.70;;;;;;4919879;29;20241;-77
2022/03/20 15:40:13;;;;;;;14.43;11.17;;;13.70;52.00;;;;;;4905234;29;20245;-77
2022/03/20 15:42:44;;;;;;;14.93;11.10;;;13.90;52.30;;;;;;4901223;29;20241;-76
2022/03/20 15:45:12;;;;;;;16.10;12.03;;;13.90;52.50;;;;;;4900241;29;20237;-77
2022/03/20 15:47:46;;;;;;;13.83;11.60;;;13.70;51.50;;;;;;4900113;29;20202;-76
2022/03/20 15:50:17;;;;;;;15.00;12.13;;;13.60;51.40;;;;;;4899784;29;20217;-80
2022/03/20 15:52:48;;;;;;;17.70;11.70;;;13.20;51.60;;;;;;4900352;29;20273;-76
2022/03/20 15:55:16;;;;;;;14.27;11.83;;;13.20;52.00;;;;;;4900351;29;20708;-78
2022/03/20 15:57:54;;;;;;;14.00;11.60;;;13.30;52.10;;;;;;4900561;29;20223;-78
2022/03/20 16:00:24;;;;;;;13.27;10.97;;;13.30;52.60;;;;;;4900279;29;20214;-76
2022/03/20 16:02:54;;;;;;;12.07;10.77;;;13.30;51.60;;;;;;4910575;29;20240;-76
2022/03/20 16:05:35;;;;;;;11.97;10.30;;;13.40;52.40;;;;;;4895884;29;20854;-73
2022/03/20 16:08:04;;;;;;;12.63;10.73;;;13.30;51.60;;;;;;4888458;29;20202;-78
2022/03/20 16:10:39;;;;;;;12.67;10.53;;;13.10;52.00;;;;;;4887175;29;20279;-76
2022/03/20 16:13:10;;;;;;;12.73;11.13;;;13.00;51.80;;;;;;4881151;29;20279;-73
2022/03/20 16:15:42;;;;;;;12.57;10.37;;;12.90;51.50;;;;;;4898944;29;20210;-74
2022/03/20 16:18:11;;;;;;;13.13;11.03;;;12.80;52.40;;;;;;4913507;29;20198;-74
2022/03/20 16:20:42;;;;;;;12.30;10.20;;;12.70;52.40;;;;;;4904643;29;20743;-74
2022/03/20 16:28:46;;;;;;;13.77;11.60;;;12.20;54.20;;;;;;4900486;29;20205;-79
2022/03/20 16:31:17;;;;;;;13.77;11.20;;;12.10;54.10;;;;;;4883512;29;20250;-77
2022/03/20 16:33:48;;;;;;;13.07;11.37;;;11.90;54.30;;;;;;4881332;29;20270;-75
2022/03/20 16:36:21;;;;;;;13.47;10.83;;;11.70;54.90;;;;;;4881411;29;20231;-75
2022/03/20 16:38:50;;;;;;;12.17;10.57;;;11.50;55.10;;;;;;4881571;29;20214;-76
2022/03/20 16:41:20;;;;;;;14.90;11.10;;;11.50;55.80;;;;;;4881713;29;20218;-75
2022/03/20 16:43:49;;;;;;;12.60;10.37;;;11.30;55.70;;;;;;4882138;29;20638;-77
2022/03/20 16:46:19;;;;;;;14.53;10.37;;;11.20;56.10;;;;;;4881339;29;20624;-77
2022/03/20 16:48:52;;;;;;;14.37;10.67;;;11.10;56.20;;;;;;4882289;29;20221;-76
2022/03/20 16:51:20;;;;;;;15.23;10.53;;;11.10;56.50;;;;;;4880966;29;20214;-77
2022/03/20 16:53:48;;;;;;;12.77;10.60;;;11.10;56.50;;;;;;4881308;29;20242;-75
2022/03/20 16:56:17;;;;;;;11.93;10.23;;;11.00;56.60;;;;;;4881114;29;20242;-77
2022/03/20 16:58:47;;;;;;;14.23;10.10;;;11.00;56.90;;;;;;4888810;29;20210;-75
2022/03/20 17:01:17;;;;;;;13.47;9.83;;;10.80;55.90;;;;;;4882504;29;20222;-76
2022/03/20 17:03:46;;;;;;;12.17;9.60;;;10.70;55.80;;;;;;4881737;29;20217;-75
2022/03/20 17:06:14;;;;;;;13.23;9.97;;;10.50;56.10;;;;;;4883063;29;20664;-78
2022/03/20 17:08:44;;;;;;;12.70;10.20;;;10.50;55.70;;;;;;4881578;29;20257;-78
2022/03/20 17:11:14;;;;;;;12.23;9.23;;;10.40;56.10;;;;;;4881102;29;20269;-79
2022/03/20 17:13:44;;;;;;;12.07;9.07;;;10.30;55.70;;;;;;4880813;29;20199;-75
2022/03/20 17:16:13;;;;;;;13.33;9.73;;;10.10;56.40;;;;;;4881364;29;20249;-78
2022/03/20 17:18:43;;;;;;;11.87;9.40;;;10.00;56.00;;;;;;4892786;29;20278;-77
2022/03/20 17:21:14;;;;;;;12.80;9.20;;;9.90;57.20;;;;;;4885582;29;20245;-75
2022/03/20 17:23:43;;;;;;;11.37;9.13;;;9.80;57.00;;;;;;4880908;29;20387;-77
2022/03/20 17:26:11;;;;;;;12.77;9.20;;;9.70;57.20;;;;;;4884158;29;20222;-75
2022/03/20 17:28:43;;;;;;;11.60;9.30;;;9.60;57.10;;;;;;4883136;29;20305;-75
2022/03/20 17:31:12;;;;;;;12.60;9.20;;;9.50;57.20;;;;;;4880617;29;20218;-75
2022/03/20 17:33:40;;;;;;;12.33;9.13;;;9.50;57.30;;;;;;4880761;29;20586;-76
2022/03/20 17:36:12;;;;;;;10.50;9.20;;;9.40;57.40;;;;;;4880726;29;20262;-77
2022/03/20 17:38:41;;;;;;;11.67;9.30;;;9.20;57.20;;;;;;4879860;29;20198;-74
2022/03/20 17:41:11;;;;;;;10.87;8.57;;;9.20;57.30;;;;;;4879577;29;20242;-76
2022/03/20 17:43:39;;;;;;;12.03;9.03;;;9.10;57.50;;;;;;4902343;29;20258;-78
2022/03/20 17:46:08;;;;;;;12.20;8.87;;;9.00;57.80;;;;;;4912167;29;20265;-76
2022/03/20 17:48:41;;;;;;;10.33;8.20;;;8.90;57.60;;;;;;4900572;29;20684;-79
2022/03/20 17:51:10;;;;;;;13.30;9.13;;;8.80;58.00;;;;;;4897366;29;20256;-74
2022/03/20 17:53:39;;;;;;;13.27;9.50;;;8.70;57.90;;;;;;4898020;29;20276;-77
2022/03/20 17:56:07;;;;;;;10.47;8.97;;;8.60;58.30;;;;;;4897496;29;20230;-74
2022/03/20 17:58:37;;;;;;;11.73;8.43;;;8.50;57.70;;;;;;4897789;29;20225;-74
2022/03/20 18:01:08;;;;;;;11.23;8.50;;;8.60;57.80;;;;;;4898004;29;20236;-75
2022/03/20 18:09:10;;;;;;;12.77;8.33;;;8.30;58.70;;;;;;4898021;29;20206;-75
2022/03/20 18:11:39;;;;;;;12.30;8.10;;;8.20;58.80;;;;;;4897902;29;20284;-75
2022/03/20 18:17:01;;;;;;;11.97;8.17;;;8.10;58.10;;;;;;4897630;29;20233;-76
2022/03/20 18:19:29;;;;;;;12.93;7.70;;;8.00;58.70;;;;;;4898014;29;20213;-75
2022/03/20 18:21:59;;;;;;;11.07;8.43;;;8.00;58.50;;;;;;4898406;29;20213;-76
2022/03/20 18:24:28;;;;;;;10.37;8.00;;;8.00;58.30;;;;;;4898656;29;20214;-74
2022/03/20 18:26:56;;;;;;;11.60;8.50;;;7.90;58.40;;;;;;4897886;29;20205;-77
2022/03/20 18:29:24;;;;;;;11.50;8.00;;;7.80;58.60;;;;;;4897903;29;20229;-74
2022/03/20 18:31:53;;;;;;;12.67;8.47;;;7.80;58.80;;;;;;4897792;29;20220;-78
2022/03/20 18:34:24;;;;;;;11.90;8.60;;;7.70;58.90;;;;;;4901366;29;20228;-76
2022/03/20 18:36:53;;;;;;;11.53;8.47;;;7.70;58.80;;;;;;4901479;29;20395;-76
2022/03/20 18:39:26;;;;;;;11.93;8.77;;;7.70;58.80;;;;;;4900970;29;20221;-75
2022/03/20 18:41:54;;;;;;;10.60;7.57;;;7.60;58.90;;;;;;4898435;29;20214;-74
2022/03/20 18:44:22;;;;;;;13.87;8.83;;;7.60;59.00;;;;;;4888152;29;20206;-74
2022/03/20 18:46:51;;;;;;;11.40;8.90;;;7.60;58.90;;;;;;4899826;29;20220;-75